createdAt,value
2022-07-31T00:07:56.502Z,30.90
2022-07-31T00:22:58.076Z,31.30
2022-07-31T00:38:27.721Z,31.10
2022-07-31T00:52:57.283Z,31.20
2022-07-31T01:07:57.715Z,31.00
2022-07-31T01:22:59.242Z,30.70
2022-07-31T01:37:58.409Z,30.60
2022-07-31T01:52:58.714Z,30.20
2022-07-31T02:07:59.069Z,30.30
2022-07-31T02:22:59.590Z,30.30
2022-07-31T02:38:00.222Z,30.30
2022-07-31T02:53:00.388Z,30.10
2022-07-31T03:08:00.496Z,29.70
2022-07-31T03:23:00.471Z,29.50
2022-07-31T03:38:41.277Z,29.50
2022-07-31T03:53:01.241Z,29.40
2022-07-31T04:08:01.714Z,29.90
2022-07-31T04:23:02.506Z,29.80
2022-07-31T04:38:02.261Z,29.80
2022-07-31T04:53:02.342Z,29.80
2022-07-31T05:08:02.648Z,30.00
2022-07-31T05:23:07.365Z,30.30
2022-07-31T05:38:03.474Z,30.30
2022-07-31T05:53:05.294Z,30.40
2022-07-31T06:08:04.068Z,30.60
2022-07-31T06:23:32.519Z,29.20
2022-07-31T07:08:06.239Z,30.00
2022-07-31T07:23:06.564Z,30.40
2022-07-31T07:38:10.688Z,29.70
2022-07-31T07:53:11.389Z,29.70
2022-07-31T08:08:07.595Z,30.50
2022-07-31T08:23:07.893Z,30.60
2022-07-31T08:38:08.149Z,30.60
2022-07-31T08:53:08.494Z,31.20
2022-07-31T09:23:10.014Z,31.70
2022-07-31T09:38:09.489Z,31.70
2022-07-31T10:08:11.040Z,31.80
2022-07-31T10:38:12.245Z,32.90
2022-07-31T10:53:13.666Z,33.10
2022-07-31T11:08:12.758Z,33.90
2022-07-31T11:23:13.226Z,35.00
2022-07-31T11:38:16.513Z,36.30
2022-07-31T11:53:13.803Z,36.70
2022-07-31T12:08:14.338Z,38.70
2022-07-31T12:23:42.306Z,40.80
2022-07-31T12:38:48.122Z,40.90
2022-07-31T12:53:15.031Z,39.30
2022-07-31T13:08:15.321Z,38.10
2022-07-31T13:23:15.791Z,37.80
2022-07-31T13:38:16.041Z,38.00
2022-07-31T13:53:16.261Z,36.80
2022-07-31T14:08:50.931Z,36.80
2022-07-31T14:23:16.998Z,37.60
2022-07-31T14:38:28.126Z,38.00
2022-07-31T14:53:18.599Z,38.00
2022-07-31T15:08:17.833Z,38.40
2022-07-31T15:23:18.483Z,38.60
2022-07-31T15:38:18.565Z,41.00
2022-07-31T15:53:18.789Z,43.40
2022-07-31T16:08:36.101Z,44.60
2022-07-31T16:23:19.534Z,43.40
2022-07-31T16:38:20.113Z,42.70
2022-07-31T16:54:17.135Z,42.40
2022-07-31T17:08:20.270Z,42.00
2022-07-31T17:23:51.400Z,41.50
2022-07-31T17:38:21.071Z,41.40
2022-07-31T17:53:21.294Z,40.80
2022-07-31T18:08:21.872Z,40.40
2022-07-31T18:23:22.211Z,38.60
2022-07-31T18:38:22.281Z,38.50
2022-07-31T18:53:23.189Z,37.40
2022-07-31T19:08:23.595Z,36.40
2022-07-31T19:23:25.108Z,35.80
2022-07-31T19:38:24.489Z,34.70
